Time;durP1;ratioP1;P1;durP2;ratioP2;P2;SDS_P1;SDS_P2;PMS_P1;PMS_P2;Temp;Humidity;BMP_temperature;BMP_pressure;BME280_temperature;BME280_humidity;BME280_pressure;Samples;Min_cycle;Max_cycle;Signal;HPM_P1;HPM_P2
2023/06/23 00:00:43;;;;;;;2.72;2.10;;;21.30;91.40;;;;;;10464645;28;20443;-68
2023/06/23 00:05:44;;;;;;;2.63;1.70;;;21.20;91.40;;;;;;10461852;28;20025;-69
2023/06/23 00:10:45;;;;;;;2.60;1.90;;;21.20;91.40;;;;;;10457734;28;20119;-69
2023/06/23 00:15:45;;;;;;;2.60;2.00;;;21.20;91.40;;;;;;10449066;28;20033;-69
2023/06/23 00:20:46;;;;;;;3.10;2.25;;;21.00;91.40;;;;;;10463995;28;20396;-68
2023/06/23 00:25:47;;;;;;;2.50;2.00;;;21.20;91.40;;;;;;10456353;28;20028;-69
2023/06/23 00:30:49;;;;;;;2.55;1.80;;;21.10;91.40;;;;;;10450354;28;20021;-69
2023/06/23 00:35:50;;;;;;;3.08;2.00;;;21.20;91.50;;;;;;10438923;28;20416;-68
2023/06/23 00:40:51;;;;;;;2.90;2.15;;;21.20;91.50;;;;;;10454038;28;20033;-69
2023/06/23 00:45:52;;;;;;;3.13;2.30;;;21.10;91.50;;;;;;10452272;28;20029;-69
2023/06/23 00:50:55;;;;;;;3.65;2.10;;;21.10;91.50;;;;;;10446445;28;20029;-69
2023/06/23 00:55:56;;;;;;;3.60;2.08;;;21.10;91.50;;;;;;10445656;28;20124;-68
2023/06/23 01:00:57;;;;;;;3.72;2.17;;;21.10;91.50;;;;;;10446745;28;20182;-69
2023/06/23 01:06:04;;;;;;;5.97;2.13;;;21.10;91.50;;;;;;10446459;28;20450;-69
2023/06/23 01:11:18;;;;;;;4.40;1.95;;;21.00;91.50;;;;;;10435346;28;20033;-69
2023/06/23 01:16:32;;;;;;;4.38;2.40;;;21.00;91.50;;;;;;10443625;28;20033;-69
2023/06/23 01:22:01;;;;;;;4.28;2.30;;;21.00;91.60;;;;;;10453258;28;20028;-69
2023/06/23 01:27:18;;;;;;;2.55;2.03;;;21.00;91.60;;;;;;10452357;28;20036;-69
2023/06/23 01:32:28;;;;;;;3.97;2.50;;;21.00;91.60;;;;;;10451228;28;20488;-69
2023/06/23 01:37:32;;;;;;;3.38;2.40;;;20.90;91.90;;;;;;10451481;28;20025;-69
2023/06/23 01:42:34;;;;;;;4.47;2.60;;;20.90;91.60;;;;;;10444407;28;20029;-68
2023/06/23 01:47:38;;;;;;;3.78;2.33;;;20.90;91.70;;;;;;10445699;28;20416;-69
2023/06/23 01:52:40;;;;;;;4.20;2.35;;;20.90;91.70;;;;;;10444181;28;20078;-69
2023/06/23 01:57:42;;;;;;;4.22;2.58;;;20.90;91.70;;;;;;10449559;28;20066;-68
2023/06/23 02:02:45;;;;;;;3.58;2.70;;;20.90;91.70;;;;;;10447964;28;20028;-69
2023/06/23 02:07:47;;;;;;;3.25;2.30;;;20.90;91.70;;;;;;10452395;28;20071;-68
2023/06/23 02:12:49;;;;;;;4.15;2.95;;;20.80;91.70;;;;;;10436683;28;20075;-69
2023/06/23 02:17:51;;;;;;;3.72;3.13;;;20.80;91.70;;;;;;10443602;28;20021;-69
2023/06/23 02:22:53;;;;;;;3.72;2.70;;;20.80;91.80;;;;;;10446219;28;20455;-69
2023/06/23 02:27:54;;;;;;;3.58;2.50;;;20.80;91.80;;;;;;10446147;28;20021;-69
2023/06/23 02:32:56;;;;;;;3.38;2.80;;;20.80;91.80;;;;;;10435880;28;20372;-69
2023/06/23 02:38:01;;;;;;;4.15;2.85;;;20.80;91.80;;;;;;10436684;28;20041;-69
2023/06/23 02:43:05;;;;;;;3.97;2.92;;;20.70;91.80;;;;;;10443576;28;20331;-69
2023/06/23 02:48:13;;;;;;;4.35;3.33;;;20.70;91.80;;;;;;10434557;28;20021;-69
2023/06/23 02:53:21;;;;;;;4.82;2.95;;;20.70;91.80;;;;;;10439059;28;20037;-69
2023/06/23 02:58:26;;;;;;;4.63;3.15;;;20.70;91.80;;;;;;10450573;28;20023;-69
2023/06/23 03:03:28;;;;;;;6.05;3.40;;;20.60;91.80;;;;;;10440594;28;20017;-68
2023/06/23 03:08:29;;;;;;;4.40;3.20;;;20.60;91.80;;;;;;10449370;28;20030;-69
2023/06/23 03:13:30;;;;;;;5.55;3.67;;;20.60;91.80;;;;;;10452503;28;20029;-68
2023/06/23 03:18:33;;;;;;;5.75;3.78;;;20.60;91.80;;;;;;10450132;28;20025;-69
2023/06/23 03:23:38;;;;;;;4.13;3.20;;;20.60;91.80;;;;;;10453796;28;20116;-69
2023/06/23 03:28:41;;;;;;;6.13;3.95;;;20.50;91.80;;;;;;10458482;28;20010;-69
2023/06/23 03:33:44;;;;;;;4.60;3.58;;;20.60;91.80;;;;;;10442242;28;20027;-69
2023/06/23 03:39:11;;;;;;;5.65;3.65;;;20.50;91.80;;;;;;10446461;28;20112;-69
2023/06/23 03:44:29;;;;;;;5.65;3.38;;;20.50;91.80;;;;;;10444783;28;20021;-69
2023/06/23 03:49:42;;;;;;;6.18;4.05;;;20.80;91.90;;;;;;10453256;28;20433;-69
2023/06/23 03:54:44;;;;;;;5.15;3.63;;;20.50;92.10;;;;;;10448429;28;20083;-68
2023/06/23 03:59:47;;;;;;;5.47;3.78;;;20.50;91.80;;;;;;10458652;28;20497;-69
2023/06/23 04:04:50;;;;;;;4.63;3.78;;;20.50;91.80;;;;;;10452396;28;20452;-69
2023/06/23 04:09:53;;;;;;;6.05;3.75;;;20.50;91.80;;;;;;10463620;28;20078;-68
2023/06/23 04:14:56;;;;;;;5.00;3.80;;;20.50;91.80;;;;;;10453222;28;20036;-69
2023/06/23 04:19:58;;;;;;;5.22;3.72;;;20.40;91.80;;;;;;10459426;28;20096;-68
2023/06/23 04:25:03;;;;;;;4.80;3.70;;;20.40;91.80;;;;;;10447603;28;20020;-69
2023/06/23 04:30:06;;;;;;;5.70;3.78;;;20.50;91.80;;;;;;10456889;28;20036;-69
2023/06/23 04:35:07;;;;;;;9.10;4.90;;;20.40;91.80;;;;;;10445798;28;20495;-69
2023/06/23 04:40:29;;;;;;;4.80;3.40;;;20.40;91.70;;;;;;10453983;28;20020;-69
2023/06/23 04:45:33;;;;;;;5.30;3.70;;;20.40;91.70;;;;;;10451460;28;20022;-69
2023/06/23 04:50:35;;;;;;;5.68;3.47;;;20.40;91.70;;;;;;10454070;28;20017;-69
2023/06/23 04:55:38;;;;;;;5.65;3.47;;;20.30;91.70;;;;;;10456038;28;20429;-69
2023/06/23 05:00:40;;;;;;;5.45;4.03;;;20.30;91.70;;;;;;10452654;28;20013;-69
2023/06/23 05:05:43;;;;;;;5.43;3.72;;;20.30;91.70;;;;;;10447329;28;20013;-69
2023/06/23 05:10:46;;;;;;;7.13;4.28;;;20.30;91.70;;;;;;10458911;28;20021;-69
2023/06/23 05:15:48;;;;;;;5.50;4.15;;;20.30;91.70;;;;;;10448460;28;20027;-68
2023/06/23 05:20:51;;;;;;;6.90;4.22;;;20.30;91.70;;;;;;10446717;28;20481;-69
2023/06/23 05:25:56;;;;;;;6.25;4.10;;;20.30;91.70;;;;;;10435354;28;20174;-70
2023/06/23 05:30:59;;;;;;;6.05;4.03;;;20.30;91.70;;;;;;10449799;28;20111;-68
2023/06/23 05:36:01;;;;;;;6.28;3.97;;;20.30;91.70;;;;;;10448825;28;20115;-69
2023/06/23 05:41:02;;;;;;;5.78;4.30;;;20.30;91.70;;;;;;10457084;28;20052;-69
2023/06/23 05:46:08;;;;;;;6.00;4.10;;;20.30;91.70;;;;;;10447384;28;20711;-69
2023/06/23 05:51:14;;;;;;;4.82;3.97;;;20.30;91.70;;;;;;10459218;28;20508;-69
2023/06/23 05:56:23;;;;;;;7.22;4.82;;;20.30;91.70;;;;;;10453868;28;20024;-69
2023/06/23 06:01:27;;;;;;;7.20;4.95;;;20.30;91.70;;;;;;10450266;28;20036;-68
2023/06/23 06:06:28;;;;;;;5.93;3.92;;;20.30;91.70;;;;;;10434922;28;20021;-69
2023/06/23 06:11:31;;;;;;;5.40;3.40;;;20.30;91.60;;;;;;10444359;28;20256;-69
2023/06/23 06:16:32;;;;;;;5.15;3.53;;;20.30;91.60;;;;;;10434715;28;20017;-69
2023/06/23 06:21:37;;;;;;;4.65;3.55;;;20.30;91.60;;;;;;10430763;28;20032;-68
2023/06/23 06:26:37;;;;;;;5.00;3.45;;;20.30;91.50;;;;;;10432854;28;20044;-69
2023/06/23 06:31:39;;;;;;;5.78;3.17;;;20.30;91.50;;;;;;10430897;28;20036;-69
2023/06/23 06:36:41;;;;;;;3.75;2.75;;;20.30;91.50;;;;;;10441817;28;20070;-68
2023/06/23 06:41:44;;;;;;;3.30;2.90;;;20.30;91.40;;;;;;10432338;28;20132;-69
2023/06/23 06:46:45;;;;;;;5.05;3.00;;;20.40;91.40;;;;;;10437026;28;20537;-70
2023/06/23 06:51:47;;;;;;;4.25;3.08;;;20.40;91.40;;;;;;10446011;28;20037;-69
2023/06/23 06:56:48;;;;;;;4.15;3.20;;;20.40;91.40;;;;;;10431594;28;20086;-70
2023/06/23 07:01:49;;;;;;;5.20;3.20;;;20.40;91.40;;;;;;10436602;28;20544;-70
2023/06/23 07:06:53;;;;;;;3.38;2.55;;;20.40;91.40;;;;;;10441947;28;20393;-70
2023/06/23 07:11:58;;;;;;;4.35;2.90;;;20.60;91.40;;;;;;10444526;28;20105;-70
2023/06/23 07:16:59;;;;;;;4.38;3.13;;;20.50;91.40;;;;;;10437941;28;20016;-70
2023/06/23 07:22:00;;;;;;;3.63;2.80;;;20.50;91.30;;;;;;10442022;28;20037;-70
2023/06/23 07:27:00;;;;;;;3.85;3.03;;;20.50;91.30;;;;;;10431804;28;20017;-70
2023/06/23 07:32:01;;;;;;;3.35;2.63;;;20.50;91.30;;;;;;10442313;28;20069;-70
2023/06/23 07:37:02;;;;;;;3.38;2.63;;;20.50;91.30;;;;;;10440625;28;20275;-70
2023/06/23 07:42:03;;;;;;;3.95;2.50;;;20.60;91.20;;;;;;10434947;28;20093;-69
2023/06/23 07:47:04;;;;;;;3.42;2.35;;;20.60;91.20;;;;;;10439573;28;20025;-69
2023/06/23 07:52:05;;;;;;;5.72;3.13;;;20.70;91.20;;;;;;10448717;28;20116;-70
2023/06/23 07:57:08;;;;;;;3.50;2.75;;;20.70;91.10;;;;;;10443769;28;20158;-70
2023/06/23 08:02:09;;;;;;;3.70;2.45;;;20.70;91.10;;;;;;10444854;28;20048;-70
2023/06/23 08:07:09;;;;;;;3.58;2.67;;;20.70;91.10;;;;;;10441337;28;20033;-70
2023/06/23 08:12:10;;;;;;;3.72;2.70;;;20.80;91.10;;;;;;10439792;28;20028;-70
2023/06/23 08:17:11;;;;;;;3.65;2.58;;;20.80;91.10;;;;;;10437287;28;20393;-70
2023/06/23 08:22:11;;;;;;;4.38;2.50;;;20.80;91.10;;;;;;10453693;28;20071;-70
2023/06/23 08:27:12;;;;;;;4.45;2.92;;;20.90;91.10;;;;;;10444162;28;20075;-70
2023/06/23 08:32:13;;;;;;;4.60;2.65;;;20.90;91.10;;;;;;10449125;28;20499;-69
2023/06/23 08:37:13;;;;;;;4.28;2.70;;;20.90;91.10;;;;;;10443755;28;20025;-69
2023/06/23 08:42:15;;;;;;;4.30;3.28;;;21.00;91.00;;;;;;10449458;28;20098;-70
2023/06/23 08:47:19;;;;;;;7.55;3.45;;;21.00;91.00;;;;;;10448723;28;20071;-69
2023/06/23 08:52:20;;;;;;;3.70;2.90;;;21.10;91.00;;;;;;10446081;28;20026;-69
2023/06/23 08:57:21;;;;;;;4.28;2.97;;;21.10;91.00;;;;;;10444874;28;20036;-69
2023/06/23 09:02:23;;;;;;;5.47;3.10;;;21.20;91.00;;;;;;10451366;28;20025;-70
2023/06/23 09:07:24;;;;;;;3.78;3.08;;;21.20;91.00;;;;;;10449457;28;20022;-70
2023/06/23 09:12:25;;;;;;;6.78;2.95;;;21.20;90.90;;;;;;10449797;28;20056;-70
2023/06/23 09:17:27;;;;;;;3.60;2.72;;;21.30;90.90;;;;;;10451043;28;20096;-69
2023/06/23 09:22:28;;;;;;;3.42;2.72;;;21.30;90.80;;;;;;10445631;28;20021;-69
2023/06/23 09:27:41;;;;;;;3.30;2.47;;;21.40;90.80;;;;;;10436758;28;20083;-70
2023/06/23 09:32:46;;;;;;;3.53;2.60;;;21.40;90.70;;;;;;10446214;28;20059;-70
2023/06/23 09:37:47;;;;;;;3.92;3.00;;;21.40;90.60;;;;;;10442093;28;20399;-69
2023/06/23 09:42:49;;;;;;;3.78;3.10;;;21.50;90.60;;;;;;10439114;28;20060;-70
2023/06/23 09:47:50;;;;;;;4.10;2.40;;;21.60;90.50;;;;;;10441942;28;20025;-70
2023/06/23 09:53:04;;;;;;;3.67;2.95;;;21.60;90.50;;;;;;10446478;28;20029;-71
2023/06/23 09:58:08;;;;;;;4.95;2.88;;;21.70;90.50;;;;;;10446046;28;20020;-71
2023/06/23 10:03:08;;;;;;;5.88;3.08;;;21.70;90.40;;;;;;10446147;28;20025;-68
2023/06/23 10:08:12;;;;;;;5.78;3.45;;;21.80;90.50;;;;;;10452057;28;20573;-69
2023/06/23 10:13:13;;;;;;;4.85;3.05;;;21.80;90.40;;;;;;10450320;28;20370;-68
2023/06/23 10:18:14;;;;;;;5.53;3.17;;;21.90;90.40;;;;;;10441904;28;20036;-69
2023/06/23 10:23:15;;;;;;;4.53;2.75;;;21.90;90.40;;;;;;10450749;28;20104;-69
2023/06/23 10:28:17;;;;;;;4.20;3.00;;;22.00;90.60;;;;;;10443364;28;20052;-69
2023/06/23 10:33:19;;;;;;;3.72;2.85;;;22.10;90.30;;;;;;10445293;28;20695;-68
2023/06/23 10:38:27;;;;;;;4.13;2.92;;;22.10;90.20;;;;;;10446945;28;20090;-69
2023/06/23 10:43:30;;;;;;;;;;;22.10;90.10;;;;;;10439246;28;20368;-69
2023/06/23 10:48:31;;;;;;;7.30;2.90;;;22.20;90.10;;;;;;10453861;28;19908;-70
2023/06/23 10:53:32;;;;;;;4.90;2.88;;;22.20;90.10;;;;;;10454383;28;20090;-69
2023/06/23 10:58:48;;;;;;;4.82;2.65;;;22.30;90.10;;;;;;10439976;28;20078;-69
2023/06/23 11:03:57;;;;;;;3.30;2.75;;;22.30;90.00;;;;;;10441508;28;20026;-70
2023/06/23 11:08:57;;;;;;;3.85;3.08;;;22.40;90.00;;;;;;10447033;28;20040;-70
2023/06/23 11:13:59;;;;;;;4.93;2.78;;;22.40;89.80;;;;;;10433228;28;20031;-69
2023/06/23 11:19:02;;;;;;;4.15;2.65;;;22.50;89.70;;;;;;10435386;28;20079;-68
2023/06/23 11:24:18;;;;;;;3.55;2.95;;;22.50;89.50;;;;;;10435828;28;20120;-69
2023/06/23 11:29:21;;;;;;;3.75;2.95;;;22.60;89.40;;;;;;10440702;28;20064;-68
2023/06/23 11:34:23;;;;;;;4.00;2.67;;;22.60;89.10;;;;;;10455170;28;20021;-71
2023/06/23 11:39:25;;;;;;;5.55;2.78;;;22.60;89.00;;;;;;10455504;28;20028;-70
2023/06/23 11:44:26;;;;;;;3.67;3.10;;;22.70;88.90;;;;;;10446453;28;20033;-70
2023/06/23 11:49:27;;;;;;;4.15;3.00;;;22.80;88.70;;;;;;10456783;28;20272;-72
2023/06/23 11:54:34;;;;;;;3.50;2.90;;;22.80;88.60;;;;;;10446441;28;20425;-68
2023/06/23 11:59:36;;;;;;;4.53;3.10;;;22.80;88.30;;;;;;10447497;28;20546;-69
2023/06/23 12:04:36;;;;;;;4.22;3.20;;;22.90;88.20;;;;;;10446782;28;20036;-69
2023/06/23 12:09:39;;;;;;;3.10;2.45;;;22.90;88.00;;;;;;10428812;28;20024;-70
2023/06/23 12:14:42;;;;;;;3.90;2.83;;;23.00;87.70;;;;;;10447437;28;20267;-69
2023/06/23 12:19:42;;;;;;;3.33;2.72;;;23.00;87.60;;;;;;10429253;28;20029;-71
2023/06/23 12:24:44;;;;;;;3.20;2.63;;;23.10;87.40;;;;;;10445401;28;20489;-70
2023/06/23 12:29:44;;;;;;;4.75;3.30;;;23.10;87.00;;;;;;10441661;28;20040;-69
2023/06/23 12:34:45;;;;;;;4.13;3.17;;;23.20;86.70;;;;;;10446717;28;20052;-69
2023/06/23 12:39:52;;;;;;;3.42;2.85;;;23.20;86.70;;;;;;10446103;28;20032;-69
2023/06/23 12:44:54;;;;;;;3.53;2.47;;;23.30;86.40;;;;;;10454733;28;20017;-70
2023/06/23 12:50:04;;;;;;;4.88;3.30;;;23.30;86.50;;;;;;10441306;28;20493;-69
2023/06/23 12:55:06;;;;;;;5.22;2.65;;;23.40;86.20;;;;;;10444858;28;20385;-71
2023/06/23 13:00:07;;;;;;;3.60;3.08;;;23.40;86.20;;;;;;10444857;28;20024;-69
2023/06/23 13:05:07;;;;;;;4.30;3.10;;;23.50;86.20;;;;;;10456313;28;20032;-70
2023/06/23 13:10:09;;;;;;;3.35;2.40;;;23.60;86.20;;;;;;10441911;28;20380;-69
2023/06/23 13:15:10;;;;;;;3.10;2.72;;;23.60;86.10;;;;;;10446119;28;20503;-69
2023/06/23 13:20:10;;;;;;;4.15;3.20;;;23.70;86.10;;;;;;10443779;28;20029;-70
2023/06/23 13:25:12;;;;;;;3.33;2.60;;;23.70;86.00;;;;;;10444679;28;20032;-69
2023/06/23 13:30:13;;;;;;;6.95;3.50;;;23.80;86.30;;;;;;10445781;28;20119;-69
2023/06/23 13:35:14;;;;;;;4.55;2.95;;;23.80;86.10;;;;;;10444188;28;20058;-69
2023/06/23 13:40:15;;;;;;;4.40;2.90;;;23.90;86.20;;;;;;10440227;28;20025;-69
2023/06/23 13:45:16;;;;;;;5.50;2.95;;;24.00;86.30;;;;;;10441251;28;20021;-69
2023/06/23 13:50:16;;;;;;;3.13;2.65;;;24.10;86.10;;;;;;10435365;28;20049;-68
2023/06/23 13:55:17;;;;;;;4.95;3.08;;;24.20;85.90;;;;;;10455355;28;20021;-69
2023/06/23 14:00:18;;;;;;;3.45;2.83;;;24.30;85.70;;;;;;10441000;28;20043;-68
2023/06/23 14:05:19;;;;;;;3.40;3.05;;;24.40;85.40;;;;;;10431132;28;20505;-68
2023/06/23 14:10:19;;;;;;;3.70;2.72;;;24.50;85.30;;;;;;10447439;28;20025;-68
2023/06/23 14:15:20;;;;;;;4.43;2.90;;;24.60;85.30;;;;;;10439646;28;20094;-68
2023/06/23 14:20:23;;;;;;;3.08;2.78;;;24.70;85.10;;;;;;10422710;28;20025;-68
2023/06/23 14:25:24;;;;;;;4.18;3.15;;;24.80;84.90;;;;;;10445735;28;20116;-69
2023/06/23 14:30:24;;;;;;;3.63;2.97;;;24.90;84.70;;;;;;10453325;28;20029;-68
2023/06/23 14:35:25;;;;;;;5.03;2.78;;;25.00;84.60;;;;;;10451294;28;20021;-69
2023/06/23 14:40:26;;;;;;;3.10;2.80;;;25.10;84.50;;;;;;10443729;28;20397;-71
2023/06/23 14:45:37;;;;;;;3.60;3.03;;;25.10;84.30;;;;;;10446706;28;20086;-70
2023/06/23 14:50:38;;;;;;;4.70;3.03;;;25.20;84.00;;;;;;10437511;28;20083;-70
2023/06/23 14:55:39;;;;;;;3.95;2.95;;;25.30;83.90;;;;;;10452428;28;20365;-71
2023/06/23 15:00:40;;;;;;;4.75;3.17;;;25.30;83.70;;;;;;10442300;28;20020;-72
2023/06/23 15:05:40;;;;;;;5.50;2.70;;;25.40;83.50;;;;;;10452999;28;20489;-71
2023/06/23 15:10:41;;;;;;;4.35;3.08;;;25.40;83.50;;;;;;10446836;28;20113;-71
2023/06/23 15:15:42;;;;;;;4.57;3.30;;;25.50;83.50;;;;;;10446463;28;20409;-71
2023/06/23 15:20:42;;;;;;;3.65;2.80;;;25.60;83.40;;;;;;10454203;28;20390;-70
2023/06/23 15:25:43;;;;;;;2.88;2.40;;;25.70;83.40;;;;;;10448409;28;20029;-70
2023/06/23 15:30:43;;;;;;;4.35;2.85;;;25.80;83.40;;;;;;10446105;28;20029;-70
2023/06/23 15:35:44;;;;;;;3.90;2.67;;;25.80;83.30;;;;;;10440421;28;20028;-70
2023/06/23 15:40:45;;;;;;;3.08;2.70;;;25.80;83.20;;;;;;10446630;28;20037;-70
2023/06/23 15:45:45;;;;;;;3.35;3.03;;;25.90;83.10;;;;;;10447820;28;20521;-70
2023/06/23 15:50:47;;;;;;;3.67;2.92;;;25.90;83.20;;;;;;10428835;28;20512;-70
2023/06/23 15:55:48;;;;;;;5.05;2.92;;;26.00;83.30;;;;;;10439791;28;20028;-70
2023/06/23 16:00:48;;;;;;;3.58;2.85;;;25.90;83.30;;;;;;10444041;28;20022;-70
2023/06/23 16:05:49;;;;;;;3.78;2.92;;;25.90;83.40;;;;;;10446276;28;20036;-70
2023/06/23 16:10:49;;;;;;;3.88;2.90;;;25.90;83.60;;;;;;10448039;28;20036;-70
2023/06/23 16:15:50;;;;;;;3.60;2.78;;;25.80;83.70;;;;;;10453672;28;20029;-70
2023/06/23 16:20:51;;;;;;;4.93;2.88;;;25.80;83.80;;;;;;10448571;28;20025;-71
2023/06/23 16:25:51;;;;;;;4.15;3.10;;;25.70;84.00;;;;;;10448041;28;20572;-70
2023/06/23 16:30:53;;;;;;;3.50;3.13;;;25.70;84.10;;;;;;10442502;28;20031;-70
2023/06/23 16:35:53;;;;;;;3.00;2.70;;;25.70;84.30;;;;;;10447415;28;20373;-70
2023/06/23 16:40:54;;;;;;;4.22;2.92;;;25.60;84.50;;;;;;10441985;28;20028;-70
2023/06/23 16:45:55;;;;;;;4.80;3.03;;;25.60;84.70;;;;;;10441397;28;20064;-70
2023/06/23 16:50:55;;;;;;;3.55;3.13;;;25.50;84.80;;;;;;10436810;28;20017;-70
2023/06/23 16:55:56;;;;;;;3.85;2.72;;;25.40;84.80;;;;;;10439871;28;20499;-69
2023/06/23 17:00:56;;;;;;;3.58;2.75;;;25.40;85.00;;;;;;10444900;28;20032;-70
2023/06/23 17:05:57;;;;;;;4.50;2.95;;;25.30;85.00;;;;;;10452208;28;20037;-70
2023/06/23 17:10:58;;;;;;;3.70;2.88;;;25.30;85.30;;;;;;10447509;28;20028;-69
2023/06/23 17:15:59;;;;;;;3.97;3.20;;;25.20;85.30;;;;;;10431844;28;20099;-69
2023/06/23 17:21:00;;;;;;;3.17;2.63;;;25.20;85.40;;;;;;10439002;28;20106;-71
2023/06/23 17:26:00;;;;;;;3.47;2.80;;;25.20;85.50;;;;;;10431113;28;20401;-70
2023/06/23 17:31:01;;;;;;;4.03;2.90;;;25.20;85.50;;;;;;10448171;28;20035;-70
2023/06/23 17:36:02;;;;;;;2.70;2.35;;;25.10;85.40;;;;;;10439013;28;20080;-70
2023/06/23 17:41:03;;;;;;;2.88;2.55;;;25.10;85.30;;;;;;10438886;28;20028;-70
2023/06/23 17:46:04;;;;;;;2.97;2.60;;;25.00;85.40;;;;;;10447155;28;20026;-70
2023/06/23 17:51:05;;;;;;;3.70;2.92;;;25.00;85.60;;;;;;10428650;28;20501;-70
2023/06/23 17:56:06;;;;;;;3.08;2.78;;;24.90;85.70;;;;;;10437602;28;20028;-70
2023/06/23 18:01:07;;;;;;;3.22;2.60;;;24.90;85.70;;;;;;10448007;28;20102;-69
2023/06/23 18:06:07;;;;;;;3.50;2.70;;;24.90;85.80;;;;;;10429527;28;20025;-70
2023/06/23 18:11:08;;;;;;;2.90;2.60;;;24.80;85.80;;;;;;10444682;28;20025;-69
2023/06/23 18:16:09;;;;;;;3.50;2.70;;;24.70;85.80;;;;;;10442148;28;20021;-71
2023/06/23 18:21:10;;;;;;;2.88;2.58;;;24.70;85.80;;;;;;10454037;28;20507;-69
2023/06/23 18:26:11;;;;;;;3.63;3.03;;;24.70;85.90;;;;;;10430781;28;20096;-70
2023/06/23 18:31:12;;;;;;;3.10;2.63;;;24.60;85.80;;;;;;10442631;28;20527;-70
2023/06/23 18:36:13;;;;;;;3.08;2.55;;;24.60;85.70;;;;;;10444230;28;20031;-69
2023/06/23 18:41:13;;;;;;;3.10;2.60;;;24.60;85.70;;;;;;10437250;28;20017;-70
2023/06/23 18:46:14;;;;;;;3.40;2.90;;;24.50;85.50;;;;;;10441457;28;20034;-70
2023/06/23 18:51:15;;;;;;;3.05;2.63;;;24.50;85.50;;;;;;10448411;28;20017;-70
2023/06/23 18:56:16;;;;;;;3.10;2.80;;;24.50;85.50;;;;;;10452023;28;20095;-69
2023/06/23 19:01:16;;;;;;;3.92;2.53;;;24.40;85.30;;;;;;10443122;28;20103;-69
2023/06/23 19:06:17;;;;;;;2.88;2.38;;;24.40;85.30;;;;;;10440208;28;20017;-69
2023/06/23 19:11:18;;;;;;;3.45;2.55;;;24.40;85.40;;;;;;10439903;28;20036;-69
2023/06/23 19:16:18;;;;;;;3.08;2.50;;;24.30;85.30;;;;;;10449594;28;20229;-69
2023/06/23 19:21:19;;;;;;;4.35;2.88;;;24.30;85.30;;;;;;10443072;28;20017;-70
2023/06/23 19:26:20;;;;;;;2.95;2.63;;;24.20;85.20;;;;;;10440699;28;20404;-69
2023/06/23 19:31:20;;;;;;;3.65;3.10;;;24.20;85.20;;;;;;10438144;28;20072;-69
2023/06/23 19:36:21;;;;;;;3.50;2.67;;;24.20;85.20;;;;;;10444863;28;20018;-70
2023/06/23 19:41:22;;;;;;;3.35;2.63;;;24.10;85.10;;;;;;10446446;28;20028;-69
2023/06/23 19:46:22;;;;;;;3.35;2.63;;;24.10;85.70;;;;;;10444587;28;20496;-69
2023/06/23 19:51:23;;;;;;;3.17;2.72;;;24.10;85.10;;;;;;10450972;28;20032;-69
2023/06/23 19:56:24;;;;;;;3.53;2.63;;;24.00;85.10;;;;;;10451308;28;20052;-69
2023/06/23 20:01:25;;;;;;;2.85;2.55;;;24.00;85.10;;;;;;10447162;28;20108;-69
2023/06/23 20:06:27;;;;;;;4.03;2.80;;;24.00;85.10;;;;;;10457382;28;20146;-70
2023/06/23 20:11:27;;;;;;;3.00;2.55;;;24.00;85.10;;;;;;10445931;28;20029;-70
2023/06/23 20:16:28;;;;;;;4.88;2.65;;;23.90;85.00;;;;;;10437570;28;20036;-69
2023/06/23 20:21:29;;;;;;;5.22;2.70;;;23.90;85.00;;;;;;10448276;28;20028;-70
2023/06/23 20:26:29;;;;;;;3.22;2.55;;;23.80;84.90;;;;;;10446908;28;20072;-69
2023/06/23 20:31:30;;;;;;;3.35;2.75;;;23.80;84.80;;;;;;10450912;28;20253;-70
2023/06/23 20:36:31;;;;;;;3.38;2.33;;;23.80;84.80;;;;;;10447233;28;20020;-70
2023/06/23 20:41:34;;;;;;;2.97;2.50;;;23.70;84.80;;;;;;10432250;28;20021;-69
2023/06/23 20:46:35;;;;;;;2.72;2.45;;;23.70;84.70;;;;;;10430391;28;20029;-69
2023/06/23 20:51:35;;;;;;;3.35;2.30;;;23.70;84.80;;;;;;10436382;28;20102;-69
2023/06/23 20:56:36;;;;;;;3.55;2.45;;;23.60;84.70;;;;;;10443376;28;20028;-69
2023/06/23 21:01:37;;;;;;;3.60;3.00;;;23.60;84.70;;;;;;10438258;28;20385;-69
2023/06/23 21:06:38;;;;;;;2.85;2.53;;;23.60;84.60;;;;;;10439795;28;20432;-69
2023/06/23 21:11:39;;;;;;;4.05;2.67;;;23.60;84.60;;;;;;10432599;28;20032;-69
2023/06/23 21:16:39;;;;;;;3.22;2.90;;;23.60;84.60;;;;;;10437630;28;20051;-69
2023/06/23 21:21:40;;;;;;;4.13;2.58;;;23.50;84.50;;;;;;10438640;28;20021;-69
2023/06/23 21:26:41;;;;;;;4.45;3.10;;;23.50;84.60;;;;;;10427195;28;20385;-69
2023/06/23 21:31:41;;;;;;;4.55;2.80;;;23.40;84.60;;;;;;10439238;28;20512;-70
2023/06/23 21:36:42;;;;;;;3.33;2.72;;;23.40;84.60;;;;;;10438447;28;20160;-69
2023/06/23 21:41:42;;;;;;;4.10;2.65;;;23.30;84.60;;;;;;10441719;28;20091;-69
2023/06/23 21:46:43;;;;;;;3.97;3.00;;;23.30;84.60;;;;;;10435844;28;20235;-69
2023/06/23 21:51:46;;;;;;;6.20;3.17;;;23.30;84.60;;;;;;10439087;28;20029;-69
2023/06/23 21:56:49;;;;;;;3.40;2.90;;;23.30;84.60;;;;;;10440214;28;20025;-69
2023/06/23 22:01:49;;;;;;;4.05;3.10;;;23.20;84.50;;;;;;10425277;28;20028;-69
2023/06/23 22:06:50;;;;;;;3.50;2.90;;;23.20;84.50;;;;;;10434427;28;20032;-69
2023/06/23 22:11:51;;;;;;;3.78;2.85;;;23.10;84.40;;;;;;10430395;28;20446;-69
2023/06/23 22:16:53;;;;;;;4.28;3.47;;;23.10;84.50;;;;;;10438335;28;20191;-69
2023/06/23 22:21:54;;;;;;;4.60;3.22;;;23.10;84.40;;;;;;10432866;28;20408;-69
2023/06/23 22:26:55;;;;;;;6.47;3.40;;;23.00;84.30;;;;;;10435932;28;20029;-69
2023/06/23 22:31:56;;;;;;;4.60;3.20;;;23.00;84.40;;;;;;10434553;28;20039;-69
2023/06/23 22:36:56;;;;;;;4.78;3.28;;;23.00;84.50;;;;;;10443261;28;20484;-69
2023/06/23 22:41:57;;;;;;;3.75;2.90;;;22.90;84.40;;;;;;10428420;28;20032;-69
2023/06/23 22:46:57;;;;;;;5.28;3.25;;;22.90;84.50;;;;;;10435044;28;20028;-69
2023/06/23 22:51:58;;;;;;;5.10;3.50;;;22.90;84.50;;;;;;10432105;28;20036;-69
2023/06/23 22:56:59;;;;;;;5.15;3.25;;;22.80;84.50;;;;;;10437353;28;20021;-68
2023/06/23 23:02:00;;;;;;;7.65;3.63;;;22.80;84.60;;;;;;10445184;28;20033;-69
2023/06/23 23:07:00;;;;;;;5.70;3.75;;;22.70;84.50;;;;;;10446577;28;20021;-69
2023/06/23 23:12:01;;;;;;;4.00;3.22;;;22.70;84.60;;;;;;10448488;28;20028;-69
2023/06/23 23:17:02;;;;;;;4.90;3.50;;;22.70;84.60;;;;;;10448925;28;20027;-69
2023/06/23 23:22:04;;;;;;;5.68;3.38;;;22.70;84.60;;;;;;10448158;28;20495;-69
2023/06/23 23:27:05;;;;;;;4.75;3.72;;;22.70;84.60;;;;;;10405435;28;1190850;-69
2023/06/23 23:32:06;;;;;;;4.05;3.00;;;22.60;84.60;;;;;;10450629;28;20102;-69
2023/06/23 23:37:07;;;;;;;4.97;3.65;;;22.60;84.70;;;;;;10446967;28;20136;-69
2023/06/23 23:42:07;;;;;;;4.47;3.20;;;22.60;84.70;;;;;;10462694;28;20039;-69
2023/06/23 23:47:08;;;;;;;4.40;3.58;;;22.50;84.70;;;;;;10443359;28;20377;-69
2023/06/23 23:52:08;;;;;;;4.50;3.22;;;22.50;84.70;;;;;;10450338;28;20033;-69
2023/06/23 23:57:09;;;;;;;5.68;3.67;;;22.40;84.60;;;;;;10455167;28;20740;-69
